Time;durP1;ratioP1;P1;durP2;ratioP2;P2;SDS_P1;SDS_P2;PMS_P1;PMS_P2;Temp;Humidity;BMP_temperature;BMP_pressure;BME280_temperature;BME280_humidity;BME280_pressure;Samples;Min_cycle;Max_cycle;Signal;HPM_P1;HPM_P2
2021/05/11 06:58:08;;;;;;;;;;;;;;;13.93;68.72;98762.53;6142725;22;1577695;-87
2021/05/11 07:00:33;;;;;;;;;;;;;;;13.94;68.82;98766.03;6209273;23;20285;-87
2021/05/11 07:02:59;;;;;;;;;;;;;;;13.93;68.76;98769.69;6209946;23;19927;-87
2021/05/11 07:05:28;;;;;;;;;;;;;;;13.93;68.72;98762.53;6209522;23;19915;-85
2021/05/11 07:08:04;;;;;;;;;;;;;;;13.93;68.69;98749.22;6211508;23;19911;-85
2021/05/11 07:10:33;;;;;;;;;;;;;;;13.93;68.72;98749.22;6209603;23;19981;-86
2021/05/11 07:13:16;;;;;;;;;;;;;;;13.92;68.60;98747.50;6208502;23;19912;-85
2021/05/11 07:15:42;;;;;;;;;;;;;;;13.93;68.48;98737.72;6208347;23;19952;-85
2021/05/11 07:18:12;;;;;;;;;;;;;;;13.93;68.58;98733.25;6209261;23;19922;-86
2021/05/11 07:20:38;;;;;;;;;;;;;;;13.92;68.62;98728.03;6211159;23;20334;-86
2021/05/11 07:23:03;;;;;;;;;;;;;;;13.92;68.74;98718.22;6211687;23;20273;-85
2021/05/11 07:25:34;;;;;;;;;;;;;;;13.91;68.69;98700.56;6210190;23;19926;-85
2021/05/11 07:30:30;;;;;;;;;;;;;;;13.91;68.42;98713.88;6214529;23;19919;-86
2021/05/11 07:32:55;;;;;;;;;;;;;;;13.91;68.41;98724.53;6210832;23;19922;-85
2021/05/11 07:35:21;;;;;;;;;;;;;;;13.93;68.45;98732.41;6211581;23;19991;-86
2021/05/11 07:37:46;;;;;;;;;;;;;;;13.92;68.55;98733.34;6208758;23;19916;-85
2021/05/11 07:40:11;;;;;;;;;;;;;;;13.92;68.53;98734.19;6210252;22;19920;-85
2021/05/11 07:42:37;;;;;;;;;;;;;;;13.92;68.49;98733.34;6209078;23;20015;-86
2021/05/11 07:45:04;;;;;;;;;;;;;;;13.91;68.42;98729.84;6210750;23;19923;-86
2021/05/11 08:16:57;;;;;;;;;;;;;;;13.92;68.30;98720.88;6218604;23;20144;-85
2021/05/11 08:19:45;;;;;;;;;;;;;;;13.91;68.29;98721.88;6210479;23;19916;-85
2021/05/11 08:30:04;;;;;;;;;;;;;;;13.91;68.47;98727.19;6209991;23;19922;-85
2021/05/11 08:32:29;;;;;;;;;;;;;;;13.91;68.42;98723.66;6183727;23;19951;-85
2021/05/11 08:34:55;;;;;;;;;;;;;;;13.91;68.30;98719.19;6210461;23;19989;-85
2021/05/11 08:37:20;;;;;;;;;;;;;;;13.91;68.34;98711.22;6211394;23;19991;-86
2021/05/11 08:39:46;;;;;;;;;;;;;;;13.92;68.37;98709.38;6210327;23;19989;-85
2021/05/11 08:42:11;;;;;;;;;;;;;;;13.91;68.22;98705.03;6211569;23;20274;-86
2021/05/11 08:44:37;;;;;;;;;;;;;;;13.92;68.14;98704.06;6210490;23;19916;-86
2021/05/11 08:47:04;;;;;;;;;;;;;;;13.91;68.17;98708.56;6210417;23;19922;-86
2021/05/11 08:49:29;;;;;;;;;;;;;;;13.90;68.19;98712.16;6182903;23;19916;-85
2021/05/11 08:52:00;;;;;;;;;;;;;;;13.91;68.22;98715.66;6210417;23;19916;-86
2021/05/11 08:54:42;;;;;;;;;;;;;;;13.91;68.24;98727.19;6209898;23;19990;-85
2021/05/11 09:05:42;;;;;;;;;;;;;;;13.92;68.30;98722.72;6211311;23;19989;-86
2021/05/11 09:08:29;;;;;;;;;;;;;;;13.91;68.06;98726.31;6211753;23;19927;-83
2021/05/11 09:14:29;;;;;;;;;;;;;;;13.92;68.16;98730.69;6213434;23;19945;-85
2021/05/11 09:25:13;;;;;;;;;;;;;;;13.91;68.02;98743.16;6210334;23;19973;-85
2021/05/11 09:27:49;;;;;;;;;;;;;;;13.91;68.18;98751.16;6188927;23;19916;-85
2021/05/11 09:30:22;;;;;;;;;;;;;;;13.92;68.15;98749.34;6213707;23;19922;-85
2021/05/11 09:54:25;;;;;;;;;;;;;;;13.93;68.37;98773.19;6211401;23;20407;-84
2021/05/11 09:57:03;;;;;;;;;;;;;;;13.94;68.57;98785.53;6183509;23;20281;-85
2021/05/11 09:59:58;;;;;;;;;;;;;;;13.95;68.50;98779.25;6209681;23;19916;-84
2021/05/11 10:49:30;;;;;;;;;;;;;;;14.01;69.08;98790.41;6208327;23;20186;-84
2021/05/11 10:52:05;;;;;;;;;;;;;;;14.00;68.96;98808.22;6208175;23;20040;-84
2021/05/11 10:54:42;;;;;;;;;;;;;;;14.01;68.76;98798.41;6207945;23;19916;-84
2021/05/11 10:57:28;;;;;;;;;;;;;;;14.01;69.00;98801.06;6182103;23;19915;-84
2021/05/11 11:00:22;;;;;;;;;;;;;;;14.01;69.05;98801.94;6210249;23;19916;-84
2021/05/11 11:02:47;;;;;;;;;;;;;;;14.01;69.16;98809.91;6208397;23;20240;-84
2021/05/11 11:05:33;;;;;;;;;;;;;;;14.03;68.92;98807.16;6208449;23;19920;-84
2021/05/11 11:07:58;;;;;;;;;;;;;;;14.03;69.22;98809.81;6208539;23;19916;-85
2021/05/11 11:10:27;;;;;;;;;;;;;;;14.03;69.22;98817.81;6209997;23;19916;-84
2021/05/11 11:12:53;;;;;;;;;;;;;;;14.03;69.50;98813.31;6208795;23;19916;-84
2021/05/11 11:15:19;;;;;;;;;;;;;;;14.04;69.78;98816.81;6181991;23;19927;-84
2021/05/11 11:17:49;;;;;;;;;;;;;;;14.05;69.94;98816.72;6208047;23;19920;-85
2021/05/11 11:20:14;;;;;;;;;;;;;;;14.05;69.85;98821.19;6209199;23;19923;-84
2021/05/11 11:25:25;;;;;;;;;;;;;;;14.08;70.17;98823.63;6209612;23;19966;-84
2021/05/11 11:27:50;;;;;;;;;;;;;;;14.06;69.97;98823.75;6208434;23;19916;-84
2021/05/11 11:30:16;;;;;;;;;;;;;;;14.07;69.81;98824.59;6207345;23;19916;-84
2021/05/11 11:32:42;;;;;;;;;;;;;;;14.08;69.64;98820.97;6183077;23;19922;-86
2021/05/11 11:35:08;;;;;;;;;;;;;;;14.08;69.96;98820.97;6183800;23;20281;-84
2021/05/11 11:37:34;;;;;;;;;;;;;;;14.08;69.95;98832.47;6183608;23;19916;-84
2021/05/11 11:40:00;;;;;;;;;;;;;;;14.06;70.10;98823.75;6209522;23;19916;-85
2021/05/11 11:42:27;;;;;;;;;;;;;;;14.08;70.30;98826.31;6182723;23;20229;-85
2021/05/11 11:44:59;;;;;;;;;;;;;;;14.09;70.27;98820.03;6182188;23;20356;-85
2021/05/11 11:47:25;;;;;;;;;;;;;;;14.09;70.15;98831.50;6182382;23;19987;-85
2021/05/11 11:49:56;;;;;;;;;;;;;;;14.10;70.14;98840.34;6207354;23;20271;-84
2021/05/11 11:52:34;;;;;;;;;;;;;;;14.12;70.38;98828.63;6182001;23;20304;-81
2021/05/11 11:57:46;;;;;;;;;;;;;;;14.21;70.51;98824.44;6212281;23;20008;-85
2021/05/11 12:00:17;;;;;;;;;;;;;;;14.18;70.44;98822.00;6207817;23;19923;-85
2021/05/11 12:03:01;;;;;;;;;;;;;;;14.17;70.48;98820.31;6182668;23;19934;-85
2021/05/11 12:05:31;;;;;;;;;;;;;;;14.15;70.23;98804.44;6182811;23;19919;-85
2021/05/11 12:10:23;;;;;;;;;;;;;;;14.15;70.54;98795.56;6209775;23;19991;-85
2021/05/11 12:12:49;;;;;;;;;;;;;;;14.14;70.36;98808.06;6209382;23;19916;-85
2021/05/11 12:15:19;;;;;;;;;;;;;;;14.15;70.39;98807.09;6209576;23;20009;-85
2021/05/11 12:17:46;;;;;;;;;;;;;;;14.16;70.30;98813.28;6209175;23;19920;-85
2021/05/11 12:20:21;;;;;;;;;;;;;;;14.15;70.17;98824.88;6208910;23;19975;-85
2021/05/11 12:22:46;;;;;;;;;;;;;;;14.16;69.96;98823.94;6209573;23;20329;-85
2021/05/11 12:25:21;;;;;;;;;;;;;;;14.15;69.87;98811.56;6209711;23;19943;-85
2021/05/11 12:27:48;;;;;;;;;;;;;;;14.14;69.87;98809.88;6208923;23;20098;-84
2021/05/11 12:30:14;;;;;;;;;;;;;;;14.14;69.73;98824.03;6209792;23;19989;-86
2021/05/11 12:32:39;;;;;;;;;;;;;;;14.14;69.65;98831.19;6211031;23;19920;-85
